createdAt,value
2018-07-26T00:00:08.866Z,91.20
2018-07-26T00:05:05.316Z,91.30
2018-07-26T00:07:33.426Z,91.40
2018-07-26T00:10:08.223Z,91.10
2018-07-26T00:12:36.166Z,90.90
2018-07-26T00:15:04.522Z,90.80
2018-07-26T00:17:32.866Z,90.90
2018-07-26T00:20:01.365Z,91.20
2018-07-26T00:22:29.337Z,91.20
2018-07-26T00:24:57.244Z,91.20
2018-07-26T00:27:25.748Z,91.20
2018-07-26T00:32:21.475Z,91.20
2018-07-26T00:39:46.135Z,91.40
2018-07-26T00:42:14.164Z,91.30
2018-07-26T00:44:43.236Z,91.50
2018-07-26T00:47:11.964Z,91.70
2018-07-26T00:49:40.627Z,91.70
2018-07-26T00:52:08.536Z,91.50
2018-07-26T00:54:36.499Z,91.80
2018-07-26T00:57:05.010Z,91.40
2018-07-26T00:59:32.909Z,91.40
2018-07-26T01:02:00.798Z,91.50
2018-07-26T01:09:24.708Z,91.10
2018-07-26T01:11:53.401Z,91.30
2018-07-26T01:14:21.376Z,91.50
2018-07-26T01:16:49.420Z,91.40
2018-07-26T01:19:17.399Z,91.50
2018-07-26T01:21:45.327Z,91.60
2018-07-26T01:24:13.329Z,91.50
2018-07-26T01:26:41.355Z,91.70
2018-07-26T01:29:09.282Z,91.60
2018-07-26T01:31:37.173Z,91.70
2018-07-26T01:34:05.984Z,91.60
2018-07-26T01:36:34.432Z,91.70
2018-07-26T01:39:03.490Z,91.50
2018-07-26T01:44:11.299Z,91.30
2018-07-26T01:49:06.942Z,91.10
2018-07-26T01:54:02.573Z,91.20
2018-07-26T01:56:30.552Z,91.70
2018-07-26T02:03:54.087Z,91.40
2018-07-26T02:06:22.432Z,91.40
2018-07-26T02:08:50.996Z,91.20
2018-07-26T02:11:18.922Z,91.40
2018-07-26T02:13:46.825Z,91.40
2018-07-26T02:16:14.723Z,91.20
2018-07-26T02:21:10.439Z,91.30
2018-07-26T02:23:38.343Z,91.50
2018-07-26T02:26:06.831Z,91.60
2018-07-26T02:28:36.459Z,91.70
2018-07-26T02:31:05.168Z,91.50
2018-07-26T02:33:33.543Z,91.60
2018-07-26T02:36:01.501Z,91.60
2018-07-26T02:38:29.551Z,91.60
2018-07-26T02:40:57.427Z,91.60
2018-07-26T02:43:25.349Z,91.40
2018-07-26T02:48:21.040Z,91.00
2018-07-26T02:50:48.995Z,91.00
2018-07-26T02:53:16.899Z,91.10
2018-07-26T02:55:44.844Z,91.00
2018-07-26T02:58:12.738Z,91.30
2018-07-26T03:00:40.598Z,91.30
2018-07-26T03:03:08.548Z,91.30
2018-07-26T03:05:37.168Z,91.20
2018-07-26T03:08:05.779Z,91.20
2018-07-26T03:10:33.739Z,91.10
2018-07-26T03:13:01.752Z,91.10
2018-07-26T03:15:29.721Z,91.40
2018-07-26T03:17:58.240Z,91.50
2018-07-26T03:20:26.993Z,91.70
2018-07-26T03:22:54.904Z,91.80
2018-07-26T03:25:22.826Z,92.20
2018-07-26T03:27:51.200Z,92.30
2018-07-26T03:30:19.306Z,92.20
2018-07-26T03:32:47.234Z,92.20
2018-07-26T03:35:15.156Z,92.10
2018-07-26T03:40:10.844Z,92.20
2018-07-26T03:42:38.815Z,92.20
2018-07-26T03:45:06.801Z,92.20
2018-07-26T03:47:34.691Z,92.00
2018-07-26T03:50:02.751Z,92.10
2018-07-26T03:54:59.229Z,92.00
2018-07-26T03:57:27.140Z,91.90
2018-07-26T03:59:55.735Z,91.90
2018-07-26T04:02:23.675Z,92.00
2018-07-26T04:04:51.665Z,92.20
2018-07-26T04:07:19.576Z,92.10
2018-07-26T04:12:16.184Z,92.20
2018-07-26T04:14:44.734Z,92.20
2018-07-26T04:17:12.624Z,92.30
2018-07-26T04:19:41.312Z,92.30
2018-07-26T04:22:10.067Z,92.30
2018-07-26T04:24:38.547Z,92.60
2018-07-26T04:27:06.722Z,92.50
2018-07-26T04:29:35.264Z,92.30
2018-07-26T04:32:03.399Z,92.40
2018-07-26T04:34:31.238Z,92.50
2018-07-26T04:36:59.135Z,92.60
2018-07-26T04:39:27.796Z,92.50
2018-07-26T04:44:23.995Z,92.60
2018-07-26T04:46:52.512Z,92.60
2018-07-26T04:49:20.895Z,92.50
2018-07-26T04:54:16.643Z,92.90
2018-07-26T04:56:45.947Z,92.90
2018-07-26T04:59:14.640Z,93.00
2018-07-26T05:01:42.602Z,93.00
2018-07-26T05:04:11.555Z,93.00
2018-07-26T05:06:40.159Z,93.00
2018-07-26T05:14:04.350Z,93.40
2018-07-26T05:16:34.564Z,93.50
2018-07-26T05:19:03.256Z,93.40
2018-07-26T05:21:31.185Z,93.40
2018-07-26T05:23:59.428Z,93.50
2018-07-26T05:28:55.112Z,93.40
2018-07-26T05:31:23.052Z,93.30
2018-07-26T05:33:51.009Z,93.30
2018-07-26T05:36:20.612Z,93.40
2018-07-26T05:38:48.707Z,93.50
2018-07-26T05:41:17.362Z,93.40
2018-07-26T05:43:45.897Z,93.00
2018-07-26T05:46:13.935Z,92.80
2018-07-26T05:48:41.858Z,92.10
2018-07-26T05:51:09.800Z,90.80
2018-07-26T05:53:37.727Z,90.20
2018-07-26T05:58:34.459Z,89.40
2018-07-26T06:01:02.600Z,88.20
2018-07-26T06:03:30.827Z,86.70
2018-07-26T06:08:27.303Z,86.10
2018-07-26T06:10:55.962Z,84.70
2018-07-26T06:15:51.661Z,84.30
2018-07-26T06:18:19.597Z,83.90
2018-07-26T06:20:47.577Z,83.60
2018-07-26T06:23:15.522Z,83.70
2018-07-26T06:25:43.580Z,82.10
2018-07-26T06:30:39.946Z,81.60
2018-07-26T06:33:08.057Z,82.10
2018-07-26T06:35:37.331Z,81.20
2018-07-26T06:38:06.710Z,80.40
2018-07-26T06:45:30.745Z,80.30
2018-07-26T06:47:59.368Z,81.50
2018-07-26T06:50:28.262Z,80.30
2018-07-26T06:52:56.759Z,79.80
2018-07-26T06:57:52.503Z,79.60
2018-07-26T07:00:20.670Z,79.20
2018-07-26T07:05:17.102Z,79.30
2018-07-26T07:07:45.010Z,78.80
2018-07-26T07:10:13.620Z,78.30
2018-07-26T07:15:10.228Z,78.80
2018-07-26T07:17:38.415Z,79.20
2018-07-26T07:20:07.725Z,78.90
2018-07-26T07:22:35.688Z,78.60
2018-07-26T07:25:04.316Z,78.70
2018-07-26T07:27:32.365Z,77.70
2018-07-26T07:32:22.802Z,77.70
2018-07-26T07:34:51.674Z,76.60
2018-07-26T07:37:19.974Z,75.90
2018-07-26T07:39:48.081Z,76.50
2018-07-26T07:44:43.669Z,76.60
2018-07-26T07:47:11.606Z,76.50
2018-07-26T07:49:39.639Z,77.10
2018-07-26T07:54:35.797Z,76.40
2018-07-26T07:57:03.791Z,77.30
2018-07-26T07:59:31.795Z,77.90
2018-07-26T08:01:59.691Z,75.40
2018-07-26T08:04:27.912Z,76.30
2018-07-26T08:06:55.814Z,76.40
2018-07-26T08:09:23.737Z,75.50
2018-07-26T08:11:51.731Z,74.70
2018-07-26T08:14:20.539Z,75.10
2018-07-26T08:16:48.798Z,74.20
2018-07-26T08:19:16.755Z,72.50
2018-07-26T08:21:44.690Z,73.50
2018-07-26T08:24:12.775Z,72.20
2018-07-26T08:26:40.828Z,72.80
2018-07-26T08:29:08.731Z,73.00
2018-07-26T08:31:36.689Z,73.40
2018-07-26T08:34:05.048Z,72.90
2018-07-26T08:36:33.032Z,74.30
2018-07-26T08:39:02.124Z,73.30
2018-07-26T08:41:30.029Z,71.90
2018-07-26T08:43:57.995Z,72.90
2018-07-26T08:46:26.025Z,73.90
2018-07-26T08:48:53.975Z,74.80
2018-07-26T08:51:21.877Z,72.90
2018-07-26T08:53:49.798Z,72.20
2018-07-26T08:56:18.009Z,72.80
2018-07-26T09:03:41.816Z,73.90
2018-07-26T09:06:10.391Z,74.00
2018-07-26T09:08:38.982Z,72.80
2018-07-26T09:11:06.909Z,73.00
2018-07-26T09:13:34.877Z,73.20
2018-07-26T09:16:02.917Z,72.60
2018-07-26T09:18:30.968Z,73.40
2018-07-26T09:23:23.288Z,73.90
2018-07-26T09:25:51.255Z,73.50
2018-07-26T09:28:19.539Z,74.60
2018-07-26T09:30:48.067Z,73.70
2018-07-26T09:33:16.135Z,71.80
2018-07-26T09:35:44.010Z,73.60
2018-07-26T09:38:12.160Z,73.20
2018-07-26T09:40:40.861Z,71.90
2018-07-26T09:43:08.762Z,71.80
2018-07-26T09:45:36.688Z,71.30
2018-07-26T09:48:04.655Z,70.00
2018-07-26T09:50:32.524Z,70.30
2018-07-26T09:53:00.402Z,71.90
2018-07-26T09:57:57.249Z,72.30
2018-07-26T10:02:58.573Z,74.20
2018-07-26T10:05:26.474Z,74.90
2018-07-26T10:10:22.754Z,73.50
2018-07-26T10:12:52.511Z,71.60
2018-07-26T10:15:20.559Z,68.50
2018-07-26T10:17:48.605Z,67.60
2018-07-26T10:20:16.607Z,69.50
2018-07-26T10:22:44.531Z,69.30
2018-07-26T10:27:40.243Z,69.40
2018-07-26T10:30:08.529Z,69.00
2018-07-26T10:32:36.976Z,67.70
2018-07-26T10:35:05.280Z,66.20
2018-07-26T10:40:00.975Z,65.60
2018-07-26T10:42:28.853Z,68.70
2018-07-26T10:44:57.369Z,68.50
2018-07-26T10:47:25.249Z,69.80
2018-07-26T10:49:54.730Z,70.50
2018-07-26T10:54:50.656Z,73.00
2018-07-26T10:57:18.628Z,72.80
2018-07-26T10:59:46.576Z,73.90
2018-07-26T11:02:14.534Z,74.00
2018-07-26T11:04:43.596Z,74.40
2018-07-26T11:07:11.535Z,75.30
2018-07-26T11:12:07.781Z,74.40
2018-07-26T11:14:36.222Z,72.40
2018-07-26T11:17:04.165Z,72.90
2018-07-26T11:19:32.084Z,72.00
2018-07-26T11:24:28.515Z,71.30
2018-07-26T11:26:57.096Z,69.60
2018-07-26T11:29:25.008Z,68.20
2018-07-26T11:34:20.786Z,68.30
2018-07-26T11:36:48.713Z,66.90
2018-07-26T11:39:16.660Z,64.10
2018-07-26T11:41:44.648Z,63.50
2018-07-26T11:44:12.685Z,64.90
2018-07-26T11:46:40.625Z,63.80
2018-07-26T11:49:08.509Z,62.70
2018-07-26T11:51:36.494Z,62.40
2018-07-26T11:54:04.473Z,61.50
2018-07-26T11:56:32.428Z,62.30
2018-07-26T11:59:01.576Z,64.40
2018-07-26T12:01:29.541Z,62.90
2018-07-26T12:03:57.494Z,64.70
2018-07-26T12:06:25.448Z,63.50
2018-07-26T12:08:53.369Z,64.80
2018-07-26T12:11:21.320Z,63.70
2018-07-26T12:13:49.242Z,64.90
2018-07-26T12:16:17.187Z,63.30
2018-07-26T12:18:45.200Z,62.20
2018-07-26T12:21:13.604Z,61.90
2018-07-26T12:23:41.493Z,62.30
2018-07-26T12:26:09.438Z,62.20
2018-07-26T12:31:05.552Z,63.80
2018-07-26T12:33:33.463Z,63.00
2018-07-26T12:36:01.367Z,63.80
2018-07-26T12:38:29.297Z,64.80
2018-07-26T12:40:57.246Z,62.70
2018-07-26T12:43:25.246Z,65.90
2018-07-26T12:45:53.960Z,65.70
2018-07-26T12:48:21.909Z,64.10
2018-07-26T12:50:51.078Z,63.90
2018-07-26T12:55:46.900Z,62.30
2018-07-26T13:00:43.833Z,70.40
2018-07-26T13:03:13.084Z,73.20
2018-07-26T13:05:41.018Z,75.00
2018-07-26T13:08:09.679Z,77.00
2018-07-26T13:10:38.179Z,80.00
2018-07-26T13:13:06.134Z,82.60
2018-07-26T13:15:36.152Z,84.00
2018-07-26T13:18:04.733Z,86.20
2018-07-26T13:20:32.687Z,86.70
2018-07-26T13:25:28.552Z,88.40
2018-07-26T13:27:56.470Z,87.80
2018-07-26T13:30:24.499Z,89.70
2018-07-26T13:32:52.426Z,88.90
2018-07-26T13:35:21.471Z,90.10
2018-07-26T13:40:17.257Z,89.70
2018-07-26T13:42:45.328Z,90.10
2018-07-26T13:45:18.495Z,90.30
2018-07-26T13:47:46.398Z,90.40
2018-07-26T13:50:14.299Z,90.90
2018-07-26T13:52:42.260Z,91.00
2018-07-26T13:55:10.234Z,91.30
2018-07-26T13:57:38.173Z,91.20
2018-07-26T14:00:06.379Z,91.20
2018-07-26T14:05:03.481Z,91.30
2018-07-26T14:07:31.751Z,92.10
2018-07-26T14:09:59.785Z,91.60
2018-07-26T14:12:28.717Z,91.40
2018-07-26T14:17:25.469Z,91.30
2018-07-26T14:19:53.688Z,91.30
2018-07-26T14:22:22.034Z,91.20
2018-07-26T14:24:50.092Z,91.00
2018-07-26T14:27:17.996Z,91.10
2018-07-26T14:29:46.031Z,90.80
2018-07-26T14:32:14.077Z,90.30
2018-07-26T14:34:41.983Z,90.00
2018-07-26T14:37:09.916Z,90.00
2018-07-26T14:39:37.891Z,90.10
2018-07-26T14:42:06.627Z,90.20
2018-07-26T14:47:02.426Z,90.00
2018-07-26T14:49:30.829Z,89.60
2018-07-26T14:51:59.479Z,89.10
2018-07-26T14:56:55.808Z,89.50
2018-07-26T14:59:24.564Z,88.80
2018-07-26T15:01:52.713Z,87.80
2018-07-26T15:06:48.458Z,87.80
2018-07-26T15:09:16.408Z,87.40
2018-07-26T15:11:44.384Z,85.30
2018-07-26T15:14:13.958Z,84.70
2018-07-26T15:16:42.051Z,85.30
2018-07-26T15:24:06.347Z,85.20
2018-07-26T15:26:34.299Z,85.80
2018-07-26T15:29:02.170Z,84.40
2018-07-26T15:31:30.663Z,82.70
2018-07-26T15:33:58.780Z,81.90
2018-07-26T15:36:27.128Z,80.70
2018-07-26T15:38:55.312Z,79.70
2018-07-26T15:41:23.522Z,79.90
2018-07-26T15:43:51.414Z,78.50
2018-07-26T15:46:19.295Z,79.10
2018-07-26T15:48:47.279Z,79.00
2018-07-26T15:53:44.355Z,79.20
2018-07-26T15:56:12.256Z,79.60
2018-07-26T15:58:40.298Z,79.70
2018-07-26T16:01:08.321Z,81.30
2018-07-26T16:03:36.358Z,80.90
2018-07-26T16:06:04.393Z,81.10
2018-07-26T16:08:32.342Z,81.80
2018-07-26T16:11:00.362Z,80.70
2018-07-26T16:13:28.342Z,81.30
2018-07-26T16:15:57.858Z,82.30
2018-07-26T16:18:25.756Z,83.20
2018-07-26T16:20:53.766Z,83.90
2018-07-26T16:23:21.730Z,83.40
2018-07-26T16:25:49.778Z,82.90
2018-07-26T16:28:17.652Z,84.00
2018-07-26T16:30:45.528Z,83.10
2018-07-26T16:33:13.470Z,84.40
2018-07-26T16:35:42.181Z,83.40
2018-07-26T16:38:10.737Z,83.40
2018-07-26T16:40:38.651Z,83.10
2018-07-26T16:45:36.000Z,83.70
2018-07-26T16:48:04.648Z,83.20
2018-07-26T16:50:33.155Z,84.00
2018-07-26T16:53:01.081Z,84.00
2018-07-26T16:55:30.685Z,84.40
2018-07-26T16:57:58.607Z,84.40
2018-07-26T17:00:26.527Z,85.30
2018-07-26T17:02:54.419Z,85.50
2018-07-26T17:05:22.366Z,85.40
2018-07-26T17:07:50.290Z,85.10
2018-07-26T17:10:18.530Z,85.30
2018-07-26T17:12:46.475Z,85.30
2018-07-26T17:15:14.497Z,85.10
2018-07-26T17:17:42.725Z,84.90
2018-07-26T17:20:10.686Z,84.50
2018-07-26T17:22:38.635Z,84.50
2018-07-26T17:30:04.701Z,84.40
2018-07-26T17:32:33.412Z,84.10
2018-07-26T17:35:01.668Z,84.40
2018-07-26T17:39:57.308Z,85.30
2018-07-26T17:47:21.766Z,85.70
2018-07-26T17:49:49.655Z,85.80
2018-07-26T17:52:18.168Z,86.00
2018-07-26T17:57:14.886Z,86.50
2018-07-26T17:59:44.237Z,86.70
2018-07-26T18:04:41.413Z,86.70
2018-07-26T18:07:09.496Z,86.90
2018-07-26T18:09:38.031Z,87.00
2018-07-26T18:12:05.968Z,87.80
2018-07-26T18:14:33.932Z,88.10
2018-07-26T18:17:03.196Z,87.70
2018-07-26T18:21:59.525Z,89.10
2018-07-26T18:24:28.468Z,88.40
2018-07-26T18:26:58.433Z,88.60
2018-07-26T18:29:27.338Z,89.00
2018-07-26T18:31:55.275Z,89.30
2018-07-26T18:34:24.005Z,89.40
2018-07-26T18:36:51.928Z,89.40
2018-07-26T18:41:48.013Z,89.70
2018-07-26T18:44:17.053Z,89.50
2018-07-26T18:46:44.996Z,89.50
2018-07-26T18:51:41.238Z,90.10
2018-07-26T18:54:10.380Z,90.30
2018-07-26T18:56:38.255Z,90.10
2018-07-26T18:59:06.210Z,90.50
2018-07-26T19:01:34.176Z,90.50
2018-07-26T19:04:02.143Z,90.20
2018-07-26T19:06:30.102Z,90.30
2018-07-26T19:08:58.043Z,90.40
2018-07-26T19:11:25.940Z,90.60
2018-07-26T19:13:54.049Z,90.80
2018-07-26T19:16:23.596Z,91.00
2018-07-26T19:18:52.357Z,91.10
2018-07-26T19:21:20.334Z,90.80
2018-07-26T19:23:48.366Z,90.80
2018-07-26T19:26:16.287Z,91.10
2018-07-26T19:28:47.730Z,91.10
2018-07-26T19:31:15.649Z,91.10
2018-07-26T19:33:43.528Z,91.10
2018-07-26T19:38:40.528Z,91.00
2018-07-26T19:41:08.935Z,90.80
2018-07-26T19:43:37.532Z,90.80
2018-07-26T19:46:05.438Z,90.80
2018-07-26T19:48:33.531Z,90.70
2018-07-26T19:51:02.252Z,90.80
2018-07-26T19:53:30.142Z,90.90
2018-07-26T19:55:58.772Z,91.00
2018-07-26T19:58:27.196Z,91.10
2018-07-26T20:00:55.132Z,91.30
2018-07-26T20:03:23.871Z,91.30
2018-07-26T20:10:47.306Z,91.70
2018-07-26T20:13:15.318Z,91.80
2018-07-26T20:15:43.831Z,92.00
2018-07-26T20:20:40.270Z,92.00
2018-07-26T20:25:40.016Z,92.10
2018-07-26T20:28:08.652Z,92.00
2018-07-26T20:30:36.582Z,92.10
2018-07-26T20:33:05.850Z,91.90
2018-07-26T20:35:35.131Z,91.70
2018-07-26T20:38:03.849Z,92.00
2018-07-26T20:40:31.883Z,91.90
2018-07-26T20:43:00.445Z,91.90
2018-07-26T20:45:28.839Z,91.90
2018-07-26T20:47:56.853Z,91.80
2018-07-26T20:50:25.805Z,91.80
2018-07-26T20:52:54.288Z,91.70
2018-07-26T20:55:23.456Z,91.70
2018-07-26T20:57:51.377Z,91.80
2018-07-26T21:00:19.355Z,91.90
2018-07-26T21:02:47.337Z,92.00
2018-07-26T21:10:12.039Z,92.10
2018-07-26T21:12:40.462Z,92.00
2018-07-26T21:17:38.116Z,92.20
2018-07-26T21:22:34.597Z,92.40
2018-07-26T21:25:03.192Z,92.40
2018-07-26T21:27:31.469Z,92.30
2018-07-26T21:29:59.379Z,92.40
2018-07-26T21:32:27.305Z,92.60
2018-07-26T21:34:55.202Z,92.40
2018-07-26T21:37:23.105Z,92.60
2018-07-26T21:42:20.079Z,92.50
2018-07-26T21:44:47.992Z,92.50
2018-07-26T21:47:15.929Z,92.50
2018-07-26T21:49:44.626Z,92.40
2018-07-26T21:52:12.482Z,92.40
2018-07-26T21:57:08.083Z,92.40
2018-07-26T21:59:36.261Z,92.40
2018-07-26T22:02:06.501Z,92.40
2018-07-26T22:07:02.548Z,92.50
2018-07-26T22:09:31.406Z,92.60
2018-07-26T22:11:59.313Z,92.50
2018-07-26T22:16:54.937Z,92.50
2018-07-26T22:21:51.266Z,92.50
2018-07-26T22:24:19.821Z,92.50
2018-07-26T22:26:47.870Z,92.40
2018-07-26T22:29:15.771Z,92.50
2018-07-26T22:31:43.683Z,92.60
2018-07-26T22:39:09.831Z,92.60
2018-07-26T22:41:37.783Z,92.80
2018-07-26T22:46:35.510Z,93.10
2018-07-26T22:49:03.425Z,93.30
2018-07-26T22:51:32.151Z,93.20
2018-07-26T22:54:00.503Z,93.40
2018-07-26T22:56:28.425Z,93.20
2018-07-26T22:58:56.539Z,93.20
2018-07-26T23:01:25.049Z,93.30
2018-07-26T23:06:21.425Z,93.20
2018-07-26T23:08:49.301Z,93.40
2018-07-26T23:11:17.248Z,93.00
2018-07-26T23:13:45.164Z,93.10
2018-07-26T23:16:13.725Z,92.90
2018-07-26T23:18:41.665Z,93.00
2018-07-26T23:21:10.224Z,93.00
2018-07-26T23:26:05.844Z,93.10
2018-07-26T23:28:33.763Z,93.40
2018-07-26T23:31:01.632Z,93.30
2018-07-26T23:33:29.528Z,93.20
2018-07-26T23:35:57.539Z,93.20
2018-07-26T23:40:54.016Z,93.40
2018-07-26T23:43:21.892Z,93.30
2018-07-26T23:45:49.875Z,93.40
2018-07-26T23:48:17.987Z,93.40
2018-07-26T23:55:41.676Z,93.20
2018-07-26T23:58:10.832Z,93.10
